Time;durP1;ratioP1;P1;durP2;ratioP2;P2;SDS_P1;SDS_P2;PMS_P1;PMS_P2;Temp;Humidity;BMP_temperature;BMP_pressure;BME280_temperature;BME280_humidity;BME280_pressure;Samples;Min_cycle;Max_cycle;Signal;HPM_P1;HPM_P2
2024/01/07 00:00:58;;;;;;;7.65;5.25;;;;;;;;;;10406150;28;20037;-75
2024/01/07 00:06:01;;;;;;;8.82;6.07;;;;;;;;;;10398481;28;20059;-75
2024/01/07 00:11:06;;;;;;;10.48;6.68;;;;;;;;;;10397961;28;20043;-75
2024/01/07 00:16:09;;;;;;;7.03;4.93;;;;;;;;;;10396908;28;20045;-75
2024/01/07 00:21:13;;;;;;;7.82;5.78;;;;;;;;;;10401578;28;20107;-75
2024/01/07 00:26:17;;;;;;;7.32;5.10;;;;;;;;;;10405640;28;20136;-75
2024/01/07 00:31:21;;;;;;;8.75;6.55;;;;;;;;;;10394081;28;20034;-75
2024/01/07 00:36:24;;;;;;;7.78;5.93;;;;;;;;;;10396721;28;20553;-75
2024/01/07 00:41:30;;;;;;;10.70;7.50;;;;;;;;;;10398470;28;20044;-75
2024/01/07 00:46:33;;;;;;;9.80;6.00;;;;;;;;;;10398611;28;20465;-75
2024/01/07 00:51:36;;;;;;;8.95;6.40;;;;;;;;;;10401298;28;20124;-75
2024/01/07 00:56:41;;;;;;;10.73;7.05;;;;;;;;;;10379973;28;20062;-75
2024/01/07 01:01:44;;;;;;;8.75;6.03;;;;;;;;;;10402038;28;20058;-75
2024/01/07 01:06:47;;;;;;;8.70;6.53;;;;;;;;;;10386829;28;20465;-75
2024/01/07 01:11:52;;;;;;;10.18;6.65;;;;;;;;;;10400457;28;20525;-75
2024/01/07 01:16:56;;;;;;;8.15;5.93;;;;;;;;;;10371265;28;20128;-75
2024/01/07 01:21:59;;;;;;;7.50;5.07;;;;;;;;;;10385398;28;20045;-75
2024/01/07 01:27:04;;;;;;;7.00;4.65;;;;;;;;;;10398126;28;20051;-75
2024/01/07 01:32:08;;;;;;;6.18;4.13;;;;;;;;;;10394568;28;20049;-75
2024/01/07 01:37:11;;;;;;;4.50;3.75;;;;;;;;;;10396030;28;20053;-75
2024/01/07 01:42:16;;;;;;;7.90;5.00;;;;;;;;;;10398561;28;20668;-75
2024/01/07 01:47:20;;;;;;;6.20;4.20;;;;;;;;;;10392177;28;20403;-74
2024/01/07 01:52:23;;;;;;;5.10;3.85;;;;;;;;;;10391281;28;20041;-75
2024/01/07 01:57:33;;;;;;;7.20;4.03;;;;;;;;;;10383263;28;20722;-75
2024/01/07 02:02:36;;;;;;;7.25;4.85;;;;;;;;;;10394660;28;20126;-75
2024/01/07 02:07:40;;;;;;;8.18;6.03;;;;;;;;;;10387786;28;20140;-75
2024/01/07 02:12:44;;;;;;;8.38;5.68;;;;;;;;;;10402382;28;20038;-75
2024/01/07 02:17:47;;;;;;;8.07;6.10;;;;;;;;;;10394287;28;20113;-76
2024/01/07 02:22:51;;;;;;;8.18;5.97;;;;;;;;;;10395414;28;20136;-75
2024/01/07 02:27:55;;;;;;;6.75;4.93;;;;;;;;;;10394625;28;20048;-75
2024/01/07 02:33:03;;;;;;;8.18;5.68;;;;;;;;;;10376934;28;20041;-72
2024/01/07 02:38:06;;;;;;;9.13;6.32;;;;;;;;;;10394991;28;20065;-74
2024/01/07 02:43:11;;;;;;;10.00;6.90;;;;;;;;;;10394773;28;20044;-75
2024/01/07 02:48:14;;;;;;;9.60;5.63;;;;;;;;;;10393555;28;20055;-75
2024/01/07 02:53:17;;;;;;;7.05;5.15;;;;;;;;;;10389841;28;20495;-75
2024/01/07 02:58:22;;;;;;;10.13;6.40;;;;;;;;;;10376840;28;20042;-75
2024/01/07 03:03:25;;;;;;;8.55;5.57;;;;;;;;;;10391259;28;20080;-75
2024/01/07 03:08:29;;;;;;;8.93;5.72;;;;;;;;;;10394073;28;20046;-75
2024/01/07 03:13:33;;;;;;;8.57;5.50;;;;;;;;;;10393264;28;20165;-75
2024/01/07 03:18:36;;;;;;;8.77;5.85;;;;;;;;;;10373290;28;20626;-75
2024/01/07 03:23:40;;;;;;;8.55;5.70;;;;;;;;;;10387257;28;20785;-75
2024/01/07 03:28:44;;;;;;;7.72;5.05;;;;;;;;;;10384148;28;20045;-75
2024/01/07 03:33:48;;;;;;;7.00;4.47;;;;;;;;;;10392170;28;20055;-76
2024/01/07 03:38:52;;;;;;;6.97;4.57;;;;;;;;;;10394575;28;20049;-75
2024/01/07 03:43:57;;;;;;;7.57;4.63;;;;;;;;;;10395046;28;20041;-75
2024/01/07 03:49:00;;;;;;;8.35;5.00;;;;;;;;;;10384725;28;20076;-75
2024/01/07 03:54:03;;;;;;;7.68;4.93;;;;;;;;;;10389506;28;20129;-75
2024/01/07 03:59:08;;;;;;;7.78;4.85;;;;;;;;;;10395554;28;20041;-75
2024/01/07 04:04:11;;;;;;;7.85;4.35;;;;;;;;;;10397403;28;20116;-75
2024/01/07 04:09:14;;;;;;;9.15;5.25;;;;;;;;;;10398395;28;20096;-75
2024/01/07 04:14:19;;;;;;;6.50;4.25;;;;;;;;;;10389386;28;20057;-75
2024/01/07 04:19:22;;;;;;;9.18;5.22;;;;;;;;;;10393300;28;20056;-75
2024/01/07 04:24:25;;;;;;;8.85;5.13;;;;;;;;;;10394058;28;20792;-75
2024/01/07 04:29:30;;;;;;;6.93;3.97;;;;;;;;;;10403170;28;20638;-75
2024/01/07 04:34:33;;;;;;;8.73;5.85;;;;;;;;;;10402715;28;20045;-75
2024/01/07 04:39:36;;;;;;;6.90;4.20;;;;;;;;;;10397284;28;20072;-75
2024/01/07 04:44:41;;;;;;;7.68;4.35;;;;;;;;;;10402593;28;20138;-75
2024/01/07 04:49:44;;;;;;;7.15;4.63;;;;;;;;;;10395845;28;21616;-75
2024/01/07 04:54:47;;;;;;;6.70;4.18;;;;;;;;;;10397855;28;20057;-75
2024/01/07 04:59:52;;;;;;;7.40;4.32;;;;;;;;;;10400563;28;20839;-75
2024/01/07 05:04:59;;;;;;;7.10;4.15;;;;;;;;;;10404135;28;20037;-76
2024/01/07 05:10:03;;;;;;;6.78;4.55;;;;;;;;;;10351687;28;20043;-74
2024/01/07 05:15:10;;;;;;;8.82;5.65;;;;;;;;;;10329667;28;20469;-74
2024/01/07 05:20:15;;;;;;;6.97;4.57;;;;;;;;;;10348001;28;20675;-74
2024/01/07 05:25:18;;;;;;;5.17;3.60;;;;;;;;;;10347568;28;20138;-75
2024/01/07 05:30:23;;;;;;;6.07;3.67;;;;;;;;;;10321726;28;20054;-74
2024/01/07 05:35:26;;;;;;;4.50;3.45;;;;;;;;;;10302557;28;20050;-74
2024/01/07 05:40:29;;;;;;;5.70;3.75;;;;;;;;;;10304329;28;20569;-74
2024/01/07 05:45:34;;;;;;;5.03;3.70;;;;;;;;;;10322823;28;20064;-74
2024/01/07 05:50:37;;;;;;;4.47;2.78;;;;;;;;;;10329726;28;20044;-74
2024/01/07 05:55:41;;;;;;;5.78;3.08;;;;;;;;;;10324847;28;20526;-74
2024/01/07 06:00:45;;;;;;;4.00;2.78;;;;;;;;;;10309236;28;20046;-74
2024/01/07 06:05:48;;;;;;;3.47;2.53;;;;;;;;;;10326546;28;20133;-74
2024/01/07 06:10:52;;;;;;;3.95;2.83;;;;;;;;;;10324088;28;20054;-74
2024/01/07 06:15:56;;;;;;;3.60;2.95;;;;;;;;;;10321531;28;20052;-74
2024/01/07 06:20:59;;;;;;;3.08;2.33;;;;;;;;;;10321608;28;20056;-74
2024/01/07 06:26:04;;;;;;;4.45;2.58;;;;;;;;;;10321415;28;20508;-74
2024/01/07 06:31:09;;;;;;;2.33;1.88;;;;;;;;;;10317078;28;20396;-74
2024/01/07 06:36:12;;;;;;;3.15;2.08;;;;;;;;;;10319597;28;20046;-74
2024/01/07 06:41:16;;;;;;;3.60;2.75;;;;;;;;;;10321097;28;20061;-74
2024/01/07 06:46:20;;;;;;;2.33;2.00;;;;;;;;;;10302940;28;20045;-74
2024/01/07 06:51:23;;;;;;;2.97;2.42;;;;;;;;;;10307349;28;20085;-74
2024/01/07 06:56:27;;;;;;;3.17;2.20;;;;;;;;;;10320194;28;20137;-74
2024/01/07 07:01:31;;;;;;;3.75;2.67;;;;;;;;;;10320306;28;20058;-74
2024/01/07 07:06:35;;;;;;;3.20;2.30;;;;;;;;;;10322260;28;20051;-74
2024/01/07 07:11:38;;;;;;;1.90;1.63;;;;;;;;;;10319906;28;20039;-74
2024/01/07 07:16:43;;;;;;;2.38;1.90;;;;;;;;;;10319494;28;20052;-74
2024/01/07 07:21:46;;;;;;;2.15;1.85;;;;;;;;;;10317780;28;20039;-74
2024/01/07 07:26:49;;;;;;;4.00;2.38;;;;;;;;;;10323152;28;20061;-74
2024/01/07 07:31:54;;;;;;;2.75;1.92;;;;;;;;;;10318461;28;20050;-74
2024/01/07 07:36:57;;;;;;;2.17;1.85;;;;;;;;;;10324113;28;20073;-74
2024/01/07 07:42:01;;;;;;;3.97;2.65;;;;;;;;;;10321689;28;20066;-74
2024/01/07 07:47:07;;;;;;;5.22;3.80;;;;;;;;;;10320422;28;20046;-74
2024/01/07 07:52:14;;;;;;;4.18;2.95;;;;;;;;;;10318703;28;20050;-74
2024/01/07 07:57:17;;;;;;;5.35;3.80;;;;;;;;;;10347211;28;20678;-74
2024/01/07 08:02:22;;;;;;;5.40;3.25;;;;;;;;;;10327759;28;20081;-74
2024/01/07 08:07:25;;;;;;;6.78;4.30;;;;;;;;;;10311696;28;20042;-74
2024/01/07 08:12:29;;;;;;;5.50;3.70;;;;;;;;;;10323058;28;20061;-74
2024/01/07 08:17:33;;;;;;;6.50;4.07;;;;;;;;;;10315807;28;20125;-74
2024/01/07 08:22:37;;;;;;;4.20;3.30;;;;;;;;;;10312299;28;20636;-74
2024/01/07 08:27:43;;;;;;;5.15;3.60;;;;;;;;;;10325236;28;20050;-74
2024/01/07 08:32:48;;;;;;;5.55;3.58;;;;;;;;;;10321605;28;20042;-74
2024/01/07 08:37:51;;;;;;;6.53;3.78;;;;;;;;;;10321723;28;20046;-74
2024/01/07 08:42:54;;;;;;;4.30;3.15;;;;;;;;;;10318529;28;20050;-74
2024/01/07 08:47:59;;;;;;;5.75;3.97;;;;;;;;;;10320619;28;20496;-74
2024/01/07 08:53:02;;;;;;;5.88;4.30;;;;;;;;;;10319973;28;20093;-74
2024/01/07 08:58:07;;;;;;;6.82;4.45;;;;;;;;;;10318994;28;20234;-74
2024/01/07 09:03:11;;;;;;;6.90;4.85;;;;;;;;;;10320199;28;20038;-74
2024/01/07 09:08:15;;;;;;;6.57;4.63;;;;;;;;;;10319079;28;20443;-74
2024/01/07 09:13:18;;;;;;;7.28;4.97;;;;;;;;;;10308956;28;20038;-74
2024/01/07 09:18:23;;;;;;;7.07;5.15;;;;;;;;;;10316066;28;20093;-74
2024/01/07 09:23:26;;;;;;;8.23;5.20;;;;;;;;;;10311761;28;20742;-74
2024/01/07 09:28:29;;;;;;;8.95;5.90;;;;;;;;;;10318354;28;20043;-74
2024/01/07 09:33:34;;;;;;;11.02;6.80;;;;;;;;;;10317883;28;20060;-74
2024/01/07 09:38:37;;;;;;;11.18;7.15;;;;;;;;;;10313709;28;20431;-74
2024/01/07 09:43:41;;;;;;;8.48;5.70;;;;;;;;;;10315888;28;20047;-74
2024/01/07 09:48:45;;;;;;;7.68;5.10;;;;;;;;;;10315399;28;20038;-74
2024/01/07 09:53:53;;;;;;;9.43;6.47;;;;;;;;;;10317244;28;20070;-74
2024/01/07 09:58:56;;;;;;;7.38;5.22;;;;;;;;;;10319842;28;20042;-74
2024/01/07 10:04:01;;;;;;;6.85;4.63;;;;;;;;;;10317926;28;20077;-74
2024/01/07 10:09:06;;;;;;;7.25;4.75;;;;;;;;;;10315677;28;20070;-74
2024/01/07 10:14:09;;;;;;;7.35;5.00;;;;;;;;;;10317155;28;20046;-74
2024/01/07 10:19:21;;;;;;;9.48;5.68;;;;;;;;;;10320371;28;20484;-74
2024/01/07 10:24:25;;;;;;;6.93;4.68;;;;;;;;;;10320175;28;20038;-74
2024/01/07 10:29:29;;;;;;;6.07;4.10;;;;;;;;;;10315775;28;20035;-74
2024/01/07 10:34:34;;;;;;;6.18;4.47;;;;;;;;;;10316434;28;20739;-73
2024/01/07 10:39:38;;;;;;;7.53;4.77;;;;;;;;;;10314711;28;20050;-74
2024/01/07 10:44:41;;;;;;;6.25;4.70;;;;;;;;;;10307828;28;20294;-74
2024/01/07 10:49:47;;;;;;;9.15;5.70;;;;;;;;;;10311109;28;20522;-73
2024/01/07 10:54:50;;;;;;;6.57;4.57;;;;;;;;;;10316881;28;20034;-74
2024/01/07 10:59:55;;;;;;;6.38;3.95;;;;;;;;;;10319336;28;20440;-74
2024/01/07 11:05:09;;;;;;;4.80;3.70;;;;;;;;;;10332062;23;20534;-76
2024/01/07 11:10:17;;;;;;;4.93;3.63;;;;;;;;;;10290204;28;20050;-76
2024/01/07 11:15:54;;;;;;;6.82;4.78;;;;;;;;;;10273513;28;20062;-75
2024/01/07 11:21:02;;;;;;;6.18;4.45;;;;;;;;;;10272695;28;20050;-76
2024/01/07 11:26:05;;;;;;;5.85;4.22;;;;;;;;;;10273275;28;20994;-76
2024/01/07 11:31:09;;;;;;;5.78;4.45;;;;;;;;;;10272664;28;20055;-75
2024/01/07 11:36:15;;;;;;;5.05;4.05;;;;;;;;;;10273756;28;20063;-73
2024/01/07 11:41:21;;;;;;;4.53;3.43;;;;;;;;;;10267165;28;20042;-73
2024/01/07 11:46:24;;;;;;;6.65;4.30;;;;;;;;;;10271425;28;20411;-73
2024/01/07 11:51:30;;;;;;;5.38;4.03;;;;;;;;;;10269347;28;20153;-73
2024/01/07 11:56:33;;;;;;;;;;;;;;;;;;10273777;28;20042;-73
2024/01/07 12:01:36;;;;;;;6.40;3.67;;;;;;;;;;10276996;28;19929;-73
2024/01/07 12:06:41;;;;;;;6.85;4.75;;;;;;;;;;10276106;28;20134;-73
2024/01/07 12:11:46;;;;;;;5.65;3.75;;;;;;;;;;10272954;28;20749;-72
2024/01/07 12:16:53;;;;;;;6.07;4.30;;;;;;;;;;10277810;28;20066;-73
2024/01/07 12:22:04;;;;;;;7.10;3.97;;;;;;;;;;10272224;28;20046;-73
2024/01/07 12:27:08;;;;;;;5.55;4.30;;;;;;;;;;10273922;28;20047;-73
2024/01/07 12:32:11;;;;;;;6.10;4.68;;;;;;;;;;10273558;28;20038;-73
2024/01/07 12:37:16;;;;;;;6.18;4.88;;;;;;;;;;10276718;28;20061;-73
2024/01/07 12:42:21;;;;;;;7.00;4.95;;;;;;;;;;10270774;28;20146;-73
2024/01/07 12:47:24;;;;;;;6.47;4.40;;;;;;;;;;10274459;28;20043;-73
2024/01/07 12:52:29;;;;;;;5.40;3.80;;;;;;;;;;10290982;28;20121;-73
2024/01/07 12:57:32;;;;;;;5.43;3.70;;;;;;;;;;10292596;28;20080;-72
2024/01/07 13:02:36;;;;;;;7.45;4.97;;;;;;;;;;10270235;28;20079;-73
2024/01/07 13:07:40;;;;;;;6.75;4.93;;;;;;;;;;10273385;28;20142;-72
2024/01/07 13:12:46;;;;;;;8.93;5.45;;;;;;;;;;10283402;28;20522;-73
2024/01/07 13:17:51;;;;;;;9.75;5.72;;;;;;;;;;10273334;28;20039;-73
2024/01/07 13:22:55;;;;;;;9.13;5.65;;;;;;;;;;10269746;28;20154;-73
2024/01/07 13:27:59;;;;;;;7.40;5.25;;;;;;;;;;10264373;28;20063;-72
2024/01/07 13:33:02;;;;;;;6.53;4.97;;;;;;;;;;10281385;28;20043;-73
2024/01/07 13:38:10;;;;;;;10.05;5.53;;;;;;;;;;10278887;28;20509;-73
2024/01/07 13:43:14;;;;;;;7.57;5.35;;;;;;;;;;10276566;28;20580;-72
2024/01/07 13:48:17;;;;;;;6.78;4.28;;;;;;;;;;10270748;28;20672;-73
2024/01/07 13:53:22;;;;;;;9.02;5.50;;;;;;;;;;10278039;28;20049;-73
2024/01/07 13:58:25;;;;;;;7.63;4.80;;;;;;;;;;10286776;28;20030;-73
2024/01/07 14:03:29;;;;;;;8.75;4.93;;;;;;;;;;10266956;28;20605;-72
2024/01/07 14:08:34;;;;;;;6.43;4.05;;;;;;;;;;10274799;28;20118;-72
2024/01/07 14:13:37;;;;;;;7.80;5.22;;;;;;;;;;10288208;28;20042;-72
2024/01/07 14:18:41;;;;;;;8.35;5.70;;;;;;;;;;10273307;28;20048;-73
2024/01/07 14:23:45;;;;;;;6.68;4.53;;;;;;;;;;10264803;28;20126;-73
2024/01/07 14:28:48;;;;;;;9.18;5.47;;;;;;;;;;10234286;28;20090;-72
2024/01/07 14:33:54;;;;;;;9.07;5.65;;;;;;;;;;10277641;28;20512;-73
2024/01/07 14:38:59;;;;;;;5.93;4.10;;;;;;;;;;10275762;28;20035;-73
2024/01/07 14:44:03;;;;;;;7.85;4.50;;;;;;;;;;10242741;28;20087;-73
2024/01/07 14:49:08;;;;;;;;;;;;;;;;;;10279528;28;20074;-72
2024/01/07 14:54:13;;;;;;;6.32;4.28;;;;;;;;;;10229639;28;20131;-73
2024/01/07 14:59:16;;;;;;;7.70;5.10;;;;;;;;;;10236001;28;20151;-72
2024/01/07 15:04:19;;;;;;;8.35;4.40;;;;;;;;;;10230418;28;20051;-72
2024/01/07 15:09:24;;;;;;;4.90;3.55;;;;;;;;;;10234131;28;20043;-72
2024/01/07 15:14:27;;;;;;;6.70;4.05;;;;;;;;;;10230848;28;20039;-73
2024/01/07 15:19:31;;;;;;;7.28;3.53;;;;;;;;;;10233273;28;20602;-73
2024/01/07 15:24:35;;;;;;;3.63;3.03;;;;;;;;;;10229602;28;20098;-73
2024/01/07 15:29:39;;;;;;;5.57;3.42;;;;;;;;;;10236875;28;20043;-72
2024/01/07 15:34:42;;;;;;;7.85;3.78;;;;;;;;;;10239297;28;20047;-75
2024/01/07 15:39:47;;;;;;;6.72;4.20;;;;;;;;;;10221044;28;20067;-75
2024/01/07 15:44:50;;;;;;;5.03;3.63;;;;;;;;;;10237437;28;20047;-75
2024/01/07 15:49:54;;;;;;;4.45;3.55;;;;;;;;;;10239101;28;20047;-75
2024/01/07 15:55:00;;;;;;;6.68;4.10;;;;;;;;;;10244543;28;20043;-75
2024/01/07 16:00:04;;;;;;;4.13;2.83;;;;;;;;;;10251135;28;20043;-75
2024/01/07 16:05:08;;;;;;;3.50;2.35;;;;;;;;;;10280303;28;20057;-75
2024/01/07 16:10:13;;;;;;;3.75;2.75;;;;;;;;;;10266382;28;20102;-75
2024/01/07 16:15:16;;;;;;;4.35;2.83;;;;;;;;;;10269205;28;20070;-75
2024/01/07 16:20:20;;;;;;;3.95;2.70;;;;;;;;;;10273966;28;20576;-75
2024/01/07 16:25:24;;;;;;;3.88;2.55;;;;;;;;;;10263224;28;20586;-75
2024/01/07 16:30:27;;;;;;;4.03;2.50;;;;;;;;;;10274678;28;20058;-75
2024/01/07 16:35:31;;;;;;;3.65;2.67;;;;;;;;;;10238006;28;20051;-75
2024/01/07 16:40:36;;;;;;;3.03;2.47;;;;;;;;;;10242940;28;20689;-75
2024/01/07 16:45:40;;;;;;;3.13;2.33;;;;;;;;;;10243148;28;20139;-76
2024/01/07 16:50:50;;;;;;;2.55;2.05;;;;;;;;;;10241853;28;20051;-75
2024/01/07 16:55:54;;;;;;;2.47;1.65;;;;;;;;;;10244506;28;20113;-75
2024/01/07 17:00:58;;;;;;;3.15;2.05;;;;;;;;;;10244888;28;20127;-75
2024/01/07 17:06:03;;;;;;;4.05;2.00;;;;;;;;;;10310372;23;20105;-74
2024/01/07 17:11:08;;;;;;;3.92;2.50;;;;;;;;;;10401201;28;20056;-73
2024/01/07 17:16:11;;;;;;;2.80;1.80;;;;;;;;;;10444375;28;20144;-73
2024/01/07 17:21:15;;;;;;;2.58;1.63;;;;;;;;;;10438096;28;20047;-73
2024/01/07 17:26:20;;;;;;;1.85;1.48;;;;;;;;;;10442882;28;20417;-73
2024/01/07 17:31:23;;;;;;;1.63;1.30;;;;;;;;;;10438486;28;20053;-73
2024/01/07 17:36:26;;;;;;;2.58;1.90;;;;;;;;;;10443578;28;20508;-73
2024/01/07 17:41:31;;;;;;;2.13;1.70;;;;;;;;;;10439937;28;20250;-73
2024/01/07 17:46:35;;;;;;;2.77;1.50;;;;;;;;;;10442888;28;20041;-73
2024/01/07 17:51:43;;;;;;;1.55;1.20;;;;;;;;;;10442336;28;20589;-73
2024/01/07 17:56:48;;;;;;;3.63;1.80;;;;;;;;;;10442866;28;20037;-73
2024/01/07 18:01:52;;;;;;;2.53;1.52;;;;;;;;;;10435767;28;20045;-73
2024/01/07 18:06:55;;;;;;;2.72;2.15;;;;;;;;;;10444789;28;20059;-73
2024/01/07 18:12:00;;;;;;;2.42;1.77;;;;;;;;;;10445159;28;20055;-73
2024/01/07 18:17:03;;;;;;;2.47;2.03;;;;;;;;;;10443622;28;20140;-73
2024/01/07 18:22:07;;;;;;;3.08;1.90;;;;;;;;;;10443783;28;20510;-73
2024/01/07 18:27:11;;;;;;;3.10;1.80;;;;;;;;;;10438363;28;20041;-72
2024/01/07 18:32:14;;;;;;;2.95;1.73;;;;;;;;;;10441444;28;20047;-73
2024/01/07 18:37:20;;;;;;;2.70;2.00;;;;;;;;;;10444001;28;20061;-73
2024/01/07 18:42:25;;;;;;;3.15;2.17;;;;;;;;;;10440226;28;20041;-73
2024/01/07 18:47:28;;;;;;;1.95;1.73;;;;;;;;;;10443244;28;20036;-73
2024/01/07 18:52:31;;;;;;;2.00;1.80;;;;;;;;;;10441091;28;20045;-73
2024/01/07 18:57:36;;;;;;;3.28;1.73;;;;;;;;;;10437035;28;20045;-73
2024/01/07 19:02:39;;;;;;;4.88;1.83;;;;;;;;;;10437441;28;20529;-73
2024/01/07 19:07:43;;;;;;;2.30;1.63;;;;;;;;;;10440836;28;20059;-73
2024/01/07 19:12:48;;;;;;;2.15;1.70;;;;;;;;;;10441583;28;20037;-73
2024/01/07 19:17:51;;;;;;;2.80;1.30;;;;;;;;;;10442693;28;20053;-73
2024/01/07 19:22:54;;;;;;;1.63;1.20;;;;;;;;;;10441633;28;20136;-73
2024/01/07 19:27:59;;;;;;;2.45;1.48;;;;;;;;;;10441319;28;20055;-73
2024/01/07 19:33:03;;;;;;;2.15;1.75;;;;;;;;;;10437944;28;20147;-73
2024/01/07 19:38:07;;;;;;;2.17;1.58;;;;;;;;;;10439950;28;20441;-73
2024/01/07 19:43:12;;;;;;;2.38;1.73;;;;;;;;;;10439150;28;20932;-73
2024/01/07 19:48:15;;;;;;;1.70;1.40;;;;;;;;;;10437110;28;20131;-73
2024/01/07 19:53:18;;;;;;;1.75;1.52;;;;;;;;;;10440734;28;20106;-73
2024/01/07 19:58:26;;;;;;;2.25;1.30;;;;;;;;;;10441963;28;20421;-73
2024/01/07 20:03:30;;;;;;;1.92;1.55;;;;;;;;;;10449459;28;20052;-73
2024/01/07 20:08:34;;;;;;;1.80;1.30;;;;;;;;;;10450010;28;20624;-72
2024/01/07 20:13:40;;;;;;;1.30;1.20;;;;;;;;;;10445246;28;20045;-73
2024/01/07 20:18:43;;;;;;;1.48;1.30;;;;;;;;;;10447417;28;20620;-73
2024/01/07 20:23:47;;;;;;;1.63;1.35;;;;;;;;;;10443661;28;20569;-72
2024/01/07 20:28:53;;;;;;;1.20;1.10;;;;;;;;;;10447268;28;20570;-73
2024/01/07 20:33:57;;;;;;;1.77;1.42;;;;;;;;;;10440050;28;20552;-73
2024/01/07 20:39:00;;;;;;;1.75;1.23;;;;;;;;;;10445274;28;20049;-73
2024/01/07 20:44:05;;;;;;;1.45;1.27;;;;;;;;;;10447323;28;20553;-73
2024/01/07 20:49:09;;;;;;;2.08;1.27;;;;;;;;;;10441907;28;20076;-73
2024/01/07 20:54:12;;;;;;;1.85;1.20;;;;;;;;;;10440722;28;20077;-73
2024/01/07 20:59:16;;;;;;;1.13;1.00;;;;;;;;;;10445229;28;20041;-73
2024/01/07 21:04:20;;;;;;;1.95;1.60;;;;;;;;;;10442565;28;20049;-73
2024/01/07 21:09:23;;;;;;;1.50;1.40;;;;;;;;;;10443368;28;20045;-73
2024/01/07 21:14:28;;;;;;;1.83;1.42;;;;;;;;;;10429413;28;20089;-73
2024/01/07 21:19:31;;;;;;;1.70;1.40;;;;;;;;;;10436369;28;20043;-72
2024/01/07 21:24:34;;;;;;;2.17;1.60;;;;;;;;;;10439005;28;20655;-73
2024/01/07 21:29:39;;;;;;;1.45;1.30;;;;;;;;;;10441492;28;20488;-73
2024/01/07 21:34:42;;;;;;;1.55;1.45;;;;;;;;;;10445252;28;20057;-73
2024/01/07 21:39:47;;;;;;;1.80;1.60;;;;;;;;;;10445397;28;20074;-73
2024/01/07 21:44:52;;;;;;;2.15;1.80;;;;;;;;;;10445229;28;20053;-73
2024/01/07 21:49:56;;;;;;;1.63;1.45;;;;;;;;;;10444077;28;20045;-73
2024/01/07 21:54:59;;;;;;;1.77;1.58;;;;;;;;;;10445073;28;20553;-73
2024/01/07 22:00:09;;;;;;;1.55;1.45;;;;;;;;;;10441252;28;20048;-73
2024/01/07 22:05:12;;;;;;;1.30;1.20;;;;;;;;;;10440451;28;20375;-73
2024/01/07 22:10:15;;;;;;;1.58;1.48;;;;;;;;;;10436692;28;20052;-73
2024/01/07 22:15:20;;;;;;;2.00;1.40;;;;;;;;;;10436619;28;20122;-73
2024/01/07 22:20:24;;;;;;;1.50;1.40;;;;;;;;;;10443148;28;20380;-73
2024/01/07 22:25:27;;;;;;;2.00;1.60;;;;;;;;;;10443991;28;20128;-73
2024/01/07 22:30:32;;;;;;;1.60;1.50;;;;;;;;;;10439972;28;20130;-73
2024/01/07 22:35:35;;;;;;;2.20;1.85;;;;;;;;;;10439059;28;20878;-73
2024/01/07 22:40:39;;;;;;;2.40;1.95;;;;;;;;;;10439121;28;20564;-73
2024/01/07 22:45:44;;;;;;;4.15;1.70;;;;;;;;;;10438992;28;20064;-73
2024/01/07 22:50:47;;;;;;;2.17;1.65;;;;;;;;;;10439155;28;20056;-73
2024/01/07 22:55:51;;;;;;;1.65;1.55;;;;;;;;;;10440829;28;20147;-73
2024/01/07 23:00:55;;;;;;;2.97;1.80;;;;;;;;;;10438275;28;20076;-73
2024/01/07 23:05:58;;;;;;;1.48;1.38;;;;;;;;;;10440285;28;20562;-73
2024/01/07 23:11:02;;;;;;;2.03;1.33;;;;;;;;;;10441257;28;20044;-73
2024/01/07 23:16:08;;;;;;;2.42;1.30;;;;;;;;;;10439152;28;20060;-73
2024/01/07 23:21:11;;;;;;;2.00;1.50;;;;;;;;;;10437995;28;20052;-73
2024/01/07 23:26:14;;;;;;;1.90;1.25;;;;;;;;;;10436296;28;20242;-72
2024/01/07 23:31:19;;;;;;;2.03;1.70;;;;;;;;;;10440807;28;20052;-73
2024/01/07 23:36:22;;;;;;;1.35;1.25;;;;;;;;;;10439998;28;20074;-73
2024/01/07 23:41:25;;;;;;;2.05;1.85;;;;;;;;;;10441035;28;20045;-73
2024/01/07 23:46:30;;;;;;;2.60;1.60;;;;;;;;;;10438595;28;20041;-73
2024/01/07 23:51:33;;;;;;;2.65;1.38;;;;;;;;;;10439118;28;20048;-73
2024/01/07 23:56:38;;;;;;;1.85;1.60;;;;;;;;;;10437137;28;20124;-73
